Time;durP1;ratioP1;P1;durP2;ratioP2;P2;SDS_P1;SDS_P2;PMS_P1;PMS_P2;Temp;Humidity;BMP_temperature;BMP_pressure;BME280_temperature;BME280_humidity;BME280_pressure;Samples;Min_cycle;Max_cycle;Signal;HPM_P1;HPM_P2
2024/01/09 00:01:45;;;;;;;14.05;9.77;;;0.00;99.90;;;-0.99;85.99;102180.34;4122896;28;20027;-68
2024/01/09 00:03:46;;;;;;;14.30;9.95;;;0.00;99.90;;;-1.04;85.83;102181.34;4135321;28;20055;-68
2024/01/09 00:05:46;;;;;;;15.40;9.30;;;0.00;99.90;;;-1.06;85.79;102184.00;4133700;28;20019;-69
2024/01/09 00:07:47;;;;;;;15.15;10.38;;;0.00;99.90;;;-1.12;85.34;102179.88;4149796;28;20030;-69
2024/01/09 00:09:48;;;;;;;16.15;10.65;;;0.00;99.90;;;-1.05;85.54;102187.44;4134669;28;20041;-69
2024/01/09 00:11:49;;;;;;;12.65;8.75;;;0.00;99.90;;;-1.03;85.91;102183.91;4134992;28;20105;-69
2024/01/09 00:13:50;;;;;;;16.70;10.82;;;0.00;99.90;;;-0.99;86.02;102182.06;4166517;28;20063;-69
2024/01/09 00:15:51;;;;;;;16.05;10.20;;;0.00;99.90;;;-0.99;86.02;102182.94;4135101;28;20022;-69
2024/01/09 00:17:52;;;;;;;14.55;10.35;;;0.00;99.90;;;-1.01;86.20;102184.69;4133490;28;20156;-68
2024/01/09 00:19:53;;;;;;;13.93;9.68;;;0.00;99.90;;;-1.03;86.39;102181.31;4135110;28;20028;-68
2024/01/09 00:21:55;;;;;;;16.77;10.18;;;0.00;99.90;;;-1.01;86.04;102183.84;4134989;28;20023;-69
2024/01/09 00:23:56;;;;;;;14.95;10.32;;;0.00;99.90;;;-0.98;86.23;102194.09;4166011;28;20034;-68
2024/01/09 00:25:57;;;;;;;15.85;10.02;;;0.00;99.90;;;-1.02;85.71;102185.63;4135080;28;20081;-68
2024/01/09 00:27:58;;;;;;;12.60;8.70;;;0.00;99.90;;;-1.10;85.48;102187.56;4135680;28;20030;-68
2024/01/09 00:29:59;;;;;;;13.20;9.40;;;0.00;99.90;;;-1.11;85.13;102186.72;4138283;28;20084;-68
2024/01/09 00:32:00;;;;;;;13.13;8.88;;;0.00;99.90;;;-1.13;85.04;102192.84;4138109;28;20022;-68
2024/01/09 00:34:01;;;;;;;13.20;8.82;;;0.00;99.90;;;-1.13;85.34;102185.94;4167643;28;20029;-69
2024/01/09 00:36:03;;;;;;;12.50;9.45;;;-0.10;99.90;;;-1.10;85.05;102192.75;4137472;28;20034;-69
2024/01/09 00:38:04;;;;;;;13.68;9.13;;;-0.10;99.90;;;-1.13;85.26;102188.50;4137370;28;20033;-68
2024/01/09 00:40:08;;;;;;;15.25;9.32;;;-0.10;99.90;;;-1.13;85.44;102188.50;4138216;28;20035;-69
2024/01/09 00:42:09;;;;;;;12.18;9.23;;;0.00;99.90;;;-1.05;85.39;102192.63;4137137;28;20057;-69
2024/01/09 00:44:10;;;;;;;13.82;9.65;;;0.00;99.90;;;-1.01;85.67;102191.63;4137178;28;20038;-68
2024/01/09 00:46:11;;;;;;;12.80;9.52;;;0.00;99.90;;;-0.99;85.56;102184.66;4138438;28;20083;-69
2024/01/09 00:48:12;;;;;;;12.15;8.63;;;0.00;99.90;;;-1.03;84.83;102186.50;4138260;28;20504;-68
2024/01/09 00:50:12;;;;;;;14.40;9.90;;;0.00;99.90;;;-1.04;84.89;102183.94;4138381;28;20070;-69
2024/01/09 00:52:13;;;;;;;12.18;8.70;;;0.00;99.90;;;-0.99;85.54;102189.84;4135563;28;20049;-68
2024/01/09 00:54:14;;;;;;;13.82;8.85;;;0.00;99.90;;;-1.01;85.27;102176.06;4131210;28;20030;-69
2024/01/09 00:56:15;;;;;;;15.02;9.82;;;0.00;99.90;;;-0.98;85.52;102183.75;4138237;28;20493;-69
2024/01/09 00:58:16;;;;;;;12.20;8.57;;;0.00;99.90;;;-0.99;85.68;102187.25;4137964;28;20033;-69
2024/01/09 01:00:17;;;;;;;11.82;8.30;;;0.10;99.90;;;-1.01;85.83;102173.50;4138326;28;20019;-68
2024/01/09 01:02:18;;;;;;;12.63;9.00;;;0.10;99.90;;;-0.98;85.75;102179.41;4138239;28;20057;-68
2024/01/09 01:04:19;;;;;;;12.65;8.48;;;0.10;99.90;;;-0.90;86.15;102192.16;4138122;28;20037;-68
2024/01/09 01:06:20;;;;;;;12.88;8.73;;;0.10;99.90;;;-0.90;85.49;102169.69;4136779;28;20097;-68
2024/01/09 01:08:21;;;;;;;12.98;8.93;;;0.10;99.90;;;-0.92;85.50;102181.81;4137950;28;20046;-68
2024/01/09 01:10:22;;;;;;;13.18;8.63;;;0.10;99.90;;;-0.94;85.84;102183.63;4136638;28;20158;-68
2024/01/09 01:12:22;;;;;;;11.40;8.77;;;0.10;99.90;;;-1.02;85.38;102174.41;4137806;28;20422;-68
2024/01/09 01:14:26;;;;;;;12.20;8.90;;;0.10;99.90;;;-0.96;85.42;102171.63;4136698;28;20093;-68
2024/01/09 01:16:27;;;;;;;14.27;8.55;;;0.10;99.90;;;-0.99;85.62;102177.75;4137998;28;20548;-68
2024/01/09 01:18:28;;;;;;;13.32;9.27;;;0.10;99.90;;;-0.95;85.82;102179.31;4133899;28;20066;-68
2024/01/09 01:20:29;;;;;;;14.02;8.85;;;0.10;99.90;;;-0.94;86.24;102180.19;4137864;28;20069;-68
2024/01/09 01:22:30;;;;;;;13.05;8.80;;;0.10;99.90;;;-0.96;85.88;102179.41;4137879;28;20049;-68
2024/01/09 01:24:31;;;;;;;13.30;8.95;;;0.10;99.90;;;-0.96;85.91;102176.81;4137769;28;20389;-69
2024/01/09 01:26:32;;;;;;;12.27;8.75;;;0.10;99.90;;;-0.99;85.43;102171.72;4137884;28;20039;-69
2024/01/09 01:28:33;;;;;;;13.98;9.18;;;0.00;99.90;;;-1.02;85.82;102170.06;4137809;28;20030;-69
2024/01/09 01:30:34;;;;;;;15.15;9.50;;;0.00;99.90;;;-1.00;85.84;102183.81;4137640;28;20486;-68
2024/01/09 01:32:35;;;;;;;13.95;8.93;;;0.10;99.90;;;-0.98;86.13;102174.25;4137763;28;20034;-68
2024/01/09 01:34:38;;;;;;;13.15;9.00;;;0.10;99.90;;;-0.97;85.90;102170.78;4137725;28;20042;-68
2024/01/09 01:36:39;;;;;;;10.60;7.32;;;0.10;99.90;;;-0.97;86.14;102178.53;4137643;28;20026;-68
2024/01/09 01:38:42;;;;;;;12.70;8.63;;;0.10;99.90;;;-0.97;86.13;102175.09;4136757;28;20042;-69
2024/01/09 01:40:43;;;;;;;13.63;9.20;;;0.10;99.90;;;-0.98;86.03;102174.25;4137980;28;20060;-68
2024/01/09 01:42:44;;;;;;;11.18;7.68;;;0.10;99.90;;;-1.01;85.90;102170.91;4137623;28;20402;-68
2024/01/09 01:44:45;;;;;;;12.00;8.18;;;0.00;99.90;;;-1.05;86.15;102164.13;4136401;28;20034;-68
2024/01/09 01:46:46;;;;;;;13.18;8.43;;;0.10;99.90;;;-1.02;85.79;102172.66;4136289;28;20037;-68
2024/01/09 01:48:47;;;;;;;12.75;9.18;;;0.10;99.90;;;-0.99;86.08;102179.50;4136397;28;20030;-68
2024/01/09 01:50:49;;;;;;;11.05;8.25;;;0.00;99.90;;;-1.01;86.37;102165.72;4137487;28;20037;-68
2024/01/09 01:52:51;;;;;;;12.50;8.77;;;0.00;99.90;;;-0.94;86.16;102180.19;4137378;28;20393;-68
2024/01/09 01:54:52;;;;;;;11.80;8.65;;;0.10;99.90;;;-0.96;86.31;102164.72;4135979;28;20058;-68
2024/01/09 01:56:54;;;;;;;12.77;9.02;;;0.10;99.90;;;-0.98;86.00;102168.22;4137546;28;20030;-68
2024/01/09 01:58:54;;;;;;;12.02;8.77;;;0.00;99.90;;;-0.98;85.56;102173.38;4136207;28;20032;-69
2024/01/09 02:00:55;;;;;;;13.30;8.88;;;0.10;99.90;;;-1.01;85.69;102173.50;4136105;28;20398;-69
2024/01/09 02:02:57;;;;;;;10.73;7.97;;;0.10;99.90;;;-1.02;84.78;102166.63;4135973;28;20030;-69
2024/01/09 02:04:58;;;;;;;13.05;9.02;;;0.00;99.90;;;-1.04;84.50;102176.16;4136136;28;20038;-69
2024/01/09 02:06:59;;;;;;;10.90;7.75;;;0.00;99.90;;;-1.05;84.34;102171.91;4136241;28;20116;-69
2024/01/09 02:09:01;;;;;;;11.00;8.23;;;0.00;99.90;;;-1.05;84.75;102175.34;4135751;28;20051;-69
2024/01/09 02:11:02;;;;;;;12.25;9.07;;;0.00;99.90;;;-1.01;84.82;102176.06;4136862;28;20058;-68
2024/01/09 02:13:03;;;;;;;12.18;8.60;;;0.00;99.90;;;-0.99;84.92;102187.25;4135830;28;20030;-68
2024/01/09 02:15:05;;;;;;;12.38;8.73;;;0.00;99.90;;;-1.03;84.90;102183.91;4137113;28;20559;-68
2024/01/09 02:17:06;;;;;;;12.15;8.07;;;0.00;99.90;;;-1.01;84.81;102179.53;4135785;28;20031;-69
2024/01/09 02:19:07;;;;;;;14.02;9.00;;;0.00;99.90;;;-0.93;84.71;102187.06;4136971;28;20620;-69
2024/01/09 02:21:07;;;;;;;14.38;8.90;;;0.10;99.90;;;-0.92;85.15;102186.16;4136920;28;20028;-68
2024/01/09 02:23:08;;;;;;;13.40;8.88;;;0.10;99.90;;;-0.97;85.08;102169.91;4136856;28;20037;-68
2024/01/09 02:25:09;;;;;;;13.18;8.90;;;0.10;99.90;;;-0.91;84.85;102180.09;4135702;28;20041;-69
2024/01/09 02:28:06;;;;;;;12.70;7.97;;;0.10;99.90;;;-0.90;84.93;102189.56;4135701;28;20498;-68
2024/01/09 02:30:08;;;;;;;13.13;9.10;;;0.10;99.90;;;-0.98;84.90;102173.38;4136943;28;20129;-68
2024/01/09 02:32:09;;;;;;;12.57;8.73;;;0.10;99.90;;;-1.04;83.88;102171.00;4135597;28;20037;-68
2024/01/09 02:34:12;;;;;;;11.38;8.35;;;0.00;99.90;;;-1.05;83.60;102179.69;4135629;28;20031;-68
2024/01/09 02:36:13;;;;;;;11.80;8.45;;;0.00;99.90;;;-1.09;83.81;102183.25;4136870;28;20027;-68
2024/01/09 02:38:15;;;;;;;9.88;7.53;;;0.00;99.90;;;-1.08;83.89;102182.34;4136497;28;20030;-68
2024/01/09 02:40:16;;;;;;;10.35;7.45;;;0.00;99.90;;;-1.06;83.82;102180.56;4136546;28;20034;-68
2024/01/09 02:42:16;;;;;;;9.80;7.32;;;-0.10;99.90;;;-1.09;84.28;102170.28;4135621;28;20569;-68
2024/01/09 02:44:18;;;;;;;11.40;7.97;;;0.00;99.90;;;-1.06;83.61;102165.88;4135757;28;20113;-68
2024/01/09 02:46:19;;;;;;;11.80;8.60;;;0.00;99.90;;;-1.16;83.31;102160.13;4136649;28;20061;-68
2024/01/09 02:48:20;;;;;;;11.43;8.60;;;0.00;99.90;;;-1.06;82.94;102172.78;4136448;28;20069;-68
2024/01/09 02:50:21;;;;;;;10.13;7.43;;;-0.10;99.90;;;-1.07;83.27;102165.91;4136000;28;20030;-68
2024/01/09 02:52:22;;;;;;;9.55;7.15;;;0.00;99.90;;;-1.07;83.23;102161.56;4135193;28;20031;-68
2024/01/09 02:54:23;;;;;;;10.85;7.55;;;0.00;99.90;;;-1.05;83.19;102171.91;4130509;28;20037;-68
2024/01/09 02:56:24;;;;;;;10.27;8.40;;;0.00;99.90;;;-1.12;82.66;102160.88;4135255;28;20519;-68
2024/01/09 02:58:25;;;;;;;11.82;8.65;;;-0.10;99.90;;;-1.17;82.47;102148.09;4135429;28;20026;-68
2024/01/09 03:00:25;;;;;;;10.68;7.47;;;-0.10;99.90;;;-1.11;82.37;102153.06;4136531;28;20026;-68
2024/01/09 03:02:26;;;;;;;8.98;7.50;;;-0.10;99.90;;;-1.08;82.64;102151.28;4135227;28;20077;-68
2024/01/09 03:04:27;;;;;;;12.30;8.15;;;0.00;99.90;;;-1.09;82.03;102159.94;4136354;28;20049;-68
2024/01/09 03:06:28;;;;;;;12.90;8.02;;;0.00;99.90;;;-1.13;81.93;102165.22;4136569;28;20035;-68
2024/01/09 03:08:29;;;;;;;11.40;8.18;;;-0.10;99.90;;;-1.13;82.02;102169.53;4134975;28;20034;-68
2024/01/09 03:10:29;;;;;;;10.45;7.85;;;-0.10;99.90;;;-1.25;81.23;102160.41;4136338;28;20027;-68
2024/01/09 03:12:30;;;;;;;9.23;7.72;;;-0.10;99.90;;;-1.22;81.10;102159.47;4134887;28;20050;-69
2024/01/09 03:14:31;;;;;;;10.82;8.55;;;-0.20;99.90;;;-1.23;80.56;102157.78;4136139;28;20030;-68
2024/01/09 03:16:32;;;;;;;11.57;7.90;;;-0.20;99.90;;;-1.20;80.96;102153.38;4136162;28;20109;-68
2024/01/09 03:18:33;;;;;;;12.27;8.10;;;-0.20;99.90;;;-1.22;80.99;102157.72;4136244;28;20023;-68
2024/01/09 03:20:34;;;;;;;11.32;7.95;;;-0.20;99.90;;;-1.29;81.25;102152.78;4136346;28;20084;-68
2024/01/09 03:22:35;;;;;;;11.95;8.40;;;-0.20;99.90;;;-1.28;81.09;102157.06;4136030;28;20406;-68
2024/01/09 03:24:36;;;;;;;11.07;7.55;;;-0.20;99.90;;;-1.28;81.65;102142.38;4134891;28;20062;-68
2024/01/09 03:26:37;;;;;;;14.60;9.55;;;-0.20;99.90;;;-1.34;81.44;102134.78;4136212;28;20037;-68
2024/01/09 03:28:38;;;;;;;10.90;7.45;;;-0.20;99.90;;;-1.31;81.50;102145.06;4136117;28;20482;-68
2024/01/09 03:30:38;;;;;;;11.93;8.05;;;-0.20;99.90;;;-1.33;81.15;102136.50;4134975;28;20050;-68
2024/01/09 03:32:39;;;;;;;10.32;7.85;;;-0.30;99.90;;;-1.29;81.54;102138.13;4136178;28;20033;-68
2024/01/09 03:34:40;;;;;;;9.98;7.47;;;-0.30;99.90;;;-1.31;81.64;102134.69;4135942;28;20036;-68
2024/01/09 03:36:44;;;;;;;12.15;8.70;;;-0.30;99.90;;;-1.30;82.04;102128.66;4136086;28;20493;-68
2024/01/09 03:38:45;;;;;;;12.65;7.68;;;-0.20;99.90;;;-1.21;82.12;102136.13;4134501;28;20034;-68
2024/01/09 03:40:46;;;;;;;10.18;8.10;;;-0.20;99.90;;;-1.24;82.15;102130.19;4136385;28;20046;-70
2024/01/09 03:42:47;;;;;;;12.23;7.72;;;-0.20;99.90;;;-1.22;81.89;102130.97;4134989;28;20025;-69
2024/01/09 03:44:48;;;;;;;11.88;8.38;;;-0.20;99.90;;;-1.23;81.76;102127.56;4136241;28;20022;-69
2024/01/09 03:46:49;;;;;;;11.50;7.43;;;-0.20;99.90;;;-1.23;81.61;102134.50;4118787;28;20030;-69
2024/01/09 03:48:50;;;;;;;11.73;7.85;;;-0.20;99.90;;;-1.27;81.61;102120.78;4136030;28;20026;-69
2024/01/09 03:50:51;;;;;;;11.10;8.75;;;-0.20;99.90;;;-1.20;81.93;102140.44;4118602;28;20085;-69
2024/01/09 03:52:51;;;;;;;11.98;8.25;;;-0.20;99.90;;;-1.21;81.74;102130.94;4135994;28;20034;-68
2024/01/09 03:54:52;;;;;;;12.35;8.13;;;-0.20;99.90;;;-1.22;81.55;102134.44;4134400;28;20034;-69
2024/01/09 03:56:53;;;;;;;11.00;7.82;;;-0.20;99.90;;;-1.20;81.59;102124.88;4135994;28;20021;-69
2024/01/09 03:58:54;;;;;;;10.55;7.95;;;-0.10;99.90;;;-1.18;81.57;102124.81;4136153;28;20057;-69
2024/01/09 04:00:55;;;;;;;11.75;8.23;;;-0.10;99.90;;;-1.18;81.74;102123.09;4134876;28;20014;-69
2024/01/09 04:02:56;;;;;;;12.50;8.75;;;-0.10;99.90;;;-1.21;81.54;102125.78;4138001;28;20030;-69
2024/01/09 04:04:56;;;;;;;11.40;8.93;;;-0.10;99.90;;;-1.20;81.67;102124.03;4138102;28;20026;-69
2024/01/09 04:06:57;;;;;;;12.63;8.95;;;-0.10;99.90;;;-1.24;81.09;102122.44;4137750;28;20510;-69
2024/01/09 04:08:58;;;;;;;11.35;8.05;;;-0.10;99.90;;;-1.27;80.61;102120.78;4138734;28;20092;-69
2024/01/09 04:11:02;;;;;;;13.30;7.85;;;-0.20;99.90;;;-1.39;80.95;102121.16;4138756;28;20030;-69
2024/01/09 04:13:03;;;;;;;10.18;7.90;;;-0.20;99.90;;;-1.35;81.09;102120.19;4138008;28;20567;-69
2024/01/09 04:15:05;;;;;;;13.25;8.35;;;-0.30;99.90;;;-1.35;80.95;102117.59;4138927;28;20486;-69
2024/01/09 04:17:05;;;;;;;11.77;7.97;;;-0.30;99.90;;;-1.30;81.17;102118.28;4137722;28;20084;-69
2024/01/09 04:19:06;;;;;;;10.93;7.95;;;-0.20;99.90;;;-1.28;81.24;102116.50;4138746;28;20034;-69
2024/01/09 04:21:07;;;;;;;12.95;8.18;;;-0.20;99.90;;;-1.26;81.28;102117.31;4138962;28;20478;-69
2024/01/09 04:23:08;;;;;;;12.55;8.63;;;-0.20;99.90;;;-1.22;81.28;102123.22;4138763;28;20096;-69
2024/01/09 04:25:09;;;;;;;11.73;8.02;;;-0.20;99.90;;;-1.25;81.63;102111.22;4137717;28;20029;-69
2024/01/09 04:27:10;;;;;;;10.20;7.00;;;-0.20;99.90;;;-1.20;81.89;102111.09;4138736;28;20034;-68
2024/01/09 04:29:10;;;;;;;13.23;8.48;;;-0.20;99.90;;;-1.17;81.93;102105.81;4138854;28;20026;-68
2024/01/09 04:31:11;;;;;;;11.68;7.90;;;-0.20;99.90;;;-1.17;81.91;102106.69;4138835;28;20500;-69
2024/01/09 04:33:12;;;;;;;9.80;7.82;;;-0.10;99.90;;;-1.14;82.04;102100.53;4137584;28;20468;-68
2024/01/09 04:35:13;;;;;;;14.20;9.35;;;-0.10;99.90;;;-1.17;81.83;102096.31;4137513;28;20445;-69
2024/01/09 04:37:14;;;;;;;11.05;8.63;;;-0.10;99.90;;;-1.18;81.41;102106.72;4138892;28;20031;-68
2024/01/09 04:39:15;;;;;;;12.18;8.18;;;-0.10;99.90;;;-1.33;80.81;102091.66;4138615;28;20022;-68
2024/01/09 04:41:17;;;;;;;13.70;8.73;;;-0.20;99.90;;;-1.30;81.00;102102.75;4137486;28;20034;-68
2024/01/09 04:43:18;;;;;;;10.93;8.43;;;-0.20;99.90;;;-1.24;81.32;102105.16;4137291;28;20022;-69
2024/01/09 04:45:19;;;;;;;14.18;8.27;;;-0.20;99.90;;;-1.23;81.24;102096.50;4137575;28;20031;-69
2024/01/09 04:47:20;;;;;;;12.18;8.20;;;-0.20;99.90;;;-1.18;81.33;102098.94;4138572;28;20041;-68
2024/01/09 04:49:20;;;;;;;11.77;8.15;;;-0.20;99.90;;;-1.20;80.99;102098.16;4137253;28;20544;-68
2024/01/09 04:51:21;;;;;;;12.98;7.68;;;-0.20;99.90;;;-1.23;81.18;102086.16;4138402;28;20500;-68
2024/01/09 04:53:22;;;;;;;13.05;8.27;;;-0.20;99.90;;;-1.20;81.40;102090.38;4136631;28;20468;-68
2024/01/09 04:55:23;;;;;;;10.55;7.93;;;-0.20;99.90;;;-1.17;81.06;102098.06;4137325;28;20081;-68
2024/01/09 04:57:24;;;;;;;11.98;8.27;;;-0.20;99.90;;;-1.20;81.15;102093.81;4138376;28;20029;-68
2024/01/09 04:59:25;;;;;;;11.15;7.88;;;-0.20;99.90;;;-1.23;81.21;102086.16;4138292;28;20022;-69
2024/01/09 05:01:26;;;;;;;9.68;7.25;;;-0.20;99.90;;;-1.22;81.09;102087.81;4136791;28;20022;-68
2024/01/09 05:03:26;;;;;;;11.52;8.50;;;-0.20;99.90;;;-1.20;81.28;102090.38;4138214;28;20054;-69
2024/01/09 05:05:27;;;;;;;10.15;7.47;;;-0.10;99.90;;;-1.23;81.03;102090.47;4137052;28;20452;-68
2024/01/09 05:07:28;;;;;;;10.93;7.22;;;-0.20;99.90;;;-1.22;81.25;102094.75;4138481;28;20038;-68
2024/01/09 05:09:29;;;;;;;10.32;7.53;;;-0.20;99.90;;;-1.20;81.52;102096.41;4137687;28;20045;-68
2024/01/09 05:11:30;;;;;;;11.63;7.80;;;-0.20;99.90;;;-1.20;81.48;102093.81;4137972;28;20046;-68
2024/01/09 05:13:31;;;;;;;10.57;7.90;;;-0.20;99.90;;;-1.19;81.42;102097.22;4136296;28;20073;-68
2024/01/09 05:15:32;;;;;;;11.38;7.22;;;-0.20;99.90;;;-1.27;79.96;102088.88;4137803;28;20034;-69
2024/01/09 05:17:33;;;;;;;9.98;6.93;;;-0.20;99.90;;;-1.29;80.38;102086.34;4137925;28;20065;-68
2024/01/09 05:19:34;;;;;;;10.30;6.22;;;-0.20;99.90;;;-1.26;80.38;102091.44;4138035;28;20033;-68
2024/01/09 05:21:35;;;;;;;10.93;6.88;;;-0.20;99.90;;;-1.27;80.09;102088.88;4136714;28;20026;-68
2024/01/09 05:23:36;;;;;;;8.18;6.07;;;-0.20;99.90;;;-1.32;79.65;102091.63;4137700;28;20026;-68
2024/01/09 05:25:38;;;;;;;8.93;6.82;;;-0.20;99.90;;;-1.31;79.41;102088.13;4138014;28;20022;-68
2024/01/09 05:27:39;;;;;;;8.35;6.82;;;-0.20;99.90;;;-1.32;79.34;102086.44;4136535;28;20034;-69
2024/01/09 05:29:40;;;;;;;7.95;6.18;;;-0.30;99.90;;;-1.35;79.25;102078.78;4136696;28;20031;-69
2024/01/09 05:31:45;;;;;;;8.63;6.05;;;-0.30;99.90;;;-1.37;78.48;102085.72;4136566;28;20023;-68
2024/01/09 05:33:47;;;;;;;8.57;6.50;;;-0.30;99.90;;;-1.37;78.37;102083.13;4152520;28;20030;-69
2024/01/09 05:35:48;;;;;;;8.02;5.72;;;-0.30;99.90;;;-1.34;78.55;102088.22;4124943;28;20050;-69
2024/01/09 05:37:49;;;;;;;8.75;6.13;;;-0.30;99.90;;;-1.34;78.26;102080.44;4137582;28;20038;-69
2024/01/09 05:39:49;;;;;;;8.30;6.05;;;-0.30;99.90;;;-1.33;78.15;102082.16;4136475;28;20026;-68
2024/01/09 05:41:50;;;;;;;8.52;6.32;;;-0.30;99.90;;;-1.30;78.53;102079.47;4137508;28;20029;-68
2024/01/09 05:43:51;;;;;;;6.82;5.38;;;-0.30;99.90;;;-1.27;78.83;102092.31;4138009;28;20014;-69
2024/01/09 05:45:52;;;;;;;8.55;6.00;;;-0.20;99.90;;;-1.26;78.45;102082.81;4137752;28;20038;-69
2024/01/09 05:47:53;;;;;;;7.55;6.00;;;-0.20;99.90;;;-1.24;78.40;102083.59;4137666;28;20037;-68
2024/01/09 05:49:54;;;;;;;11.13;7.22;;;-0.20;99.90;;;-1.24;78.27;102078.41;4137432;28;20409;-69
2024/01/09 05:51:54;;;;;;;8.80;5.95;;;-0.20;99.90;;;-1.25;78.57;102080.16;4137359;28;20492;-68
2024/01/09 05:53:55;;;;;;;8.90;6.00;;;-0.20;99.90;;;-1.23;78.52;102078.38;4137376;28;20501;-68
2024/01/09 05:55:56;;;;;;;8.68;6.18;;;-0.20;99.90;;;-1.26;78.49;102075.91;4137051;28;20021;-68
2024/01/09 05:57:57;;;;;;;9.10;6.80;;;-0.20;99.90;;;-1.23;78.46;102080.97;4136115;28;20030;-69
2024/01/09 05:59:58;;;;;;;10.05;6.55;;;-0.20;99.90;;;-1.24;78.85;102071.50;4137457;28;20474;-69
2024/01/09 06:01:59;;;;;;;8.00;6.15;;;-0.20;99.90;;;-1.24;78.44;102071.50;4137299;28;20469;-69
2024/01/09 06:04:00;;;;;;;8.45;6.55;;;-0.20;99.90;;;-1.21;78.60;102074.00;4168743;28;20052;-69
2024/01/09 06:06:01;;;;;;;7.82;6.10;;;-0.20;99.90;;;-1.17;78.97;102077.34;4137289;28;20035;-68
2024/01/09 06:08:01;;;;;;;8.10;5.97;;;-0.20;99.90;;;-1.21;79.45;102066.22;4136697;28;20556;-69
2024/01/09 06:10:03;;;;;;;7.90;5.72;;;-0.10;99.90;;;-1.18;79.06;102075.63;4167350;28;20033;-69
2024/01/09 06:12:05;;;;;;;7.43;5.53;;;-0.10;99.90;;;-1.19;79.22;102067.03;4161755;28;20045;-68
2024/01/09 06:14:05;;;;;;;10.00;6.15;;;-0.10;99.90;;;-1.14;79.36;102072.91;4137074;28;20085;-68
2024/01/09 06:16:07;;;;;;;8.45;6.30;;;-0.10;99.90;;;-1.18;78.82;102067.88;4137040;28;20021;-68
2024/01/09 06:18:08;;;;;;;7.20;5.60;;;-0.10;99.90;;;-1.22;78.62;102061.09;4135756;28;20029;-68
2024/01/09 06:20:10;;;;;;;9.98;6.60;;;-0.10;99.90;;;-1.23;78.15;102064.59;4136972;28;20030;-68
2024/01/09 06:22:12;;;;;;;9.27;5.85;;;-0.20;99.90;;;-1.24;78.50;102063.75;4137015;28;20034;-68
2024/01/09 06:24:12;;;;;;;8.63;6.63;;;-0.20;99.90;;;-1.23;78.42;102065.44;4136747;28;20018;-68
2024/01/09 06:26:14;;;;;;;8.70;6.47;;;-0.20;99.90;;;-1.26;77.99;102065.53;4136921;28;20061;-68
2024/01/09 06:28:15;;;;;;;9.55;6.78;;;-0.20;99.90;;;-1.24;78.40;102070.66;4136953;28;20553;-68
2024/01/09 06:30:16;;;;;;;10.32;6.88;;;-0.20;99.90;;;-1.22;78.48;102076.63;4136859;28;20038;-68
2024/01/09 06:32:17;;;;;;;11.40;7.45;;;-0.20;99.90;;;-1.25;78.78;102068.94;4135571;28;20022;-68
2024/01/09 06:34:17;;;;;;;8.73;5.90;;;-0.20;99.90;;;-1.20;79.10;102069.69;4135621;28;20401;-68
2024/01/09 06:36:18;;;;;;;10.57;6.80;;;-0.20;99.90;;;-1.19;79.05;102066.16;4136850;28;20019;-68
2024/01/09 06:38:19;;;;;;;9.27;6.63;;;-0.20;99.90;;;-1.17;79.63;102062.66;4135317;28;20050;-69
2024/01/09 06:40:20;;;;;;;10.90;7.47;;;-0.10;99.90;;;-1.14;78.99;102065.16;4135274;28;20026;-68
2024/01/09 06:42:21;;;;;;;12.27;7.53;;;-0.10;99.90;;;-1.16;79.35;102072.09;4135669;28;20059;-68
2024/01/09 06:44:21;;;;;;;8.75;6.85;;;-0.10;99.90;;;-1.13;79.33;102068.56;4168081;28;20492;-68
2024/01/09 06:46:22;;;;;;;8.95;6.50;;;-0.10;99.90;;;-1.14;79.66;102065.16;4136691;28;20034;-68
2024/01/09 06:48:23;;;;;;;11.05;6.93;;;-0.10;99.90;;;-1.11;79.95;102069.38;4136648;28;20030;-68
2024/01/09 06:50:24;;;;;;;11.02;7.13;;;-0.10;99.90;;;-1.13;79.98;102065.97;4135488;28;20037;-68
2024/01/09 06:52:25;;;;;;;9.88;7.28;;;-0.10;99.90;;;-1.11;79.91;102059.84;4135427;28;20042;-68
2024/01/09 06:54:26;;;;;;;10.90;6.82;;;-0.10;99.90;;;-1.12;79.28;102063.34;4136325;28;20379;-68
2024/01/09 06:56:26;;;;;;;8.38;5.97;;;-0.10;99.90;;;-1.12;79.07;102073.72;4135234;28;20096;-68
2024/01/09 06:58:27;;;;;;;8.98;6.68;;;-0.10;99.90;;;-1.09;79.02;102077.09;4135447;28;20038;-68
2024/01/09 07:00:28;;;;;;;8.50;7.00;;;-0.10;99.90;;;-1.08;79.17;102064.09;4136487;28;20030;-68
2024/01/09 07:02:29;;;;;;;10.10;7.10;;;-0.10;99.90;;;-1.07;79.27;102070.09;4135182;28;20033;-68
2024/01/09 07:04:30;;;;;;;10.45;6.97;;;-0.10;99.90;;;-1.11;79.17;102069.38;4136348;28;20030;-68
2024/01/09 07:06:31;;;;;;;9.30;6.90;;;-0.10;99.90;;;-1.09;79.26;102071.91;4135360;28;20034;-68
2024/01/09 07:08:32;;;;;;;9.45;6.85;;;-0.10;99.90;;;-1.07;79.04;102076.13;4136128;28;20026;-68
2024/01/09 07:10:33;;;;;;;8.90;6.40;;;-0.10;99.90;;;-1.06;79.37;102076.97;4135177;28;20037;-68
2024/01/09 07:12:35;;;;;;;9.88;6.68;;;-0.10;99.90;;;-1.03;79.59;102077.75;4134837;28;20078;-68
2024/01/09 07:14:36;;;;;;;11.25;6.85;;;0.00;99.90;;;-1.04;80.11;102073.44;4167648;28;20030;-68
2024/01/09 07:16:37;;;;;;;11.73;7.50;;;0.00;99.90;;;-1.03;80.27;102077.75;4136239;28;20030;-68
2024/01/09 07:18:38;;;;;;;10.35;6.53;;;-0.10;99.90;;;-1.03;80.50;102071.72;4136263;28;20037;-68
2024/01/09 07:20:39;;;;;;;10.98;7.40;;;0.00;99.90;;;-1.06;80.71;102066.63;4135017;28;20120;-68
2024/01/09 07:22:39;;;;;;;10.05;7.43;;;0.00;99.90;;;-1.03;80.67;102082.06;4136071;28;20030;-68
2024/01/09 07:24:40;;;;;;;12.27;8.07;;;0.00;99.90;;;-1.03;80.57;102066.53;4136037;28;20478;-68
2024/01/09 07:26:42;;;;;;;10.55;7.13;;;0.00;99.90;;;-1.04;80.80;102065.69;4136200;28;20038;-68
2024/01/09 07:28:43;;;;;;;13.02;8.30;;;0.00;99.90;;;-1.01;80.38;102072.50;4136149;28;20057;-68
2024/01/09 07:30:45;;;;;;;11.23;7.72;;;0.00;99.90;;;-1.04;80.37;102068.25;4135947;28;20520;-68
2024/01/09 07:32:46;;;;;;;10.65;7.55;;;0.00;99.90;;;-0.99;80.47;102070.72;4156856;28;20104;-68
2024/01/09 07:34:48;;;;;;;13.15;7.40;;;0.00;99.90;;;-0.99;80.65;102068.13;4136126;28;20030;-68
2024/01/09 07:36:49;;;;;;;9.95;7.20;;;0.00;99.90;;;-0.99;80.41;102065.53;4134409;28;20085;-68
2024/01/09 07:38:50;;;;;;;10.93;7.45;;;0.00;99.90;;;-0.97;80.17;102071.50;4134597;28;20027;-68
2024/01/09 07:40:51;;;;;;;11.63;6.95;;;0.00;99.90;;;-0.98;80.49;102062.88;4136228;28;20022;-68
2024/01/09 07:42:52;;;;;;;13.68;7.63;;;0.00;99.90;;;-0.97;80.54;102067.19;4134916;28;20528;-68
2024/01/09 07:44:53;;;;;;;12.38;7.53;;;0.10;99.90;;;-1.03;80.44;102062.19;4135969;28;20041;-68
2024/01/09 07:46:53;;;;;;;10.50;7.05;;;0.00;99.90;;;-1.03;80.49;102062.19;4118508;28;20383;-68
2024/01/09 07:48:54;;;;;;;11.77;8.02;;;0.00;99.90;;;-0.98;80.70;102069.81;4134885;28;20023;-68
2024/01/09 07:50:56;;;;;;;11.73;7.50;;;0.00;99.90;;;-1.01;80.66;102060.41;4135925;28;20109;-68
2024/01/09 07:52:57;;;;;;;9.50;6.63;;;0.00;99.90;;;-1.00;80.85;102059.50;4134498;28;20018;-68
2024/01/09 07:54:58;;;;;;;11.38;7.07;;;0.00;99.90;;;-1.02;80.69;102055.28;4133410;28;20029;-68
2024/01/09 07:57:00;;;;;;;11.88;7.25;;;0.00;99.90;;;-1.01;80.76;102059.53;4134712;28;20046;-68
2024/01/09 07:59:01;;;;;;;11.05;7.13;;;0.00;99.90;;;-1.01;81.04;102059.53;4135965;28;20037;-68
2024/01/09 08:01:02;;;;;;;10.00;6.95;;;0.00;99.90;;;-1.01;80.85;102069.91;4135583;28;20047;-68
2024/01/09 08:03:07;;;;;;;11.07;7.38;;;0.00;99.90;;;-0.97;80.71;102066.34;4134545;28;20022;-68
2024/01/09 08:05:08;;;;;;;13.50;7.47;;;0.00;99.90;;;-0.99;81.12;102063.81;4133974;28;20121;-68
2024/01/09 08:07:09;;;;;;;11.95;7.32;;;0.00;99.90;;;-0.95;81.25;102074.88;4135748;28;20125;-68
2024/01/09 08:09:11;;;;;;;13.80;7.55;;;0.10;99.90;;;-0.97;80.90;102074.94;4138744;28;20027;-68
2024/01/09 08:11:11;;;;;;;9.98;6.85;;;0.10;99.90;;;-0.91;81.21;102081.66;4134318;28;20494;-69
2024/01/09 08:13:12;;;;;;;10.32;7.40;;;0.10;99.90;;;-0.97;81.17;102062.00;4134603;28;20042;-68
2024/01/09 08:15:13;;;;;;;10.82;6.63;;;0.10;99.90;;;-0.91;81.36;102073.91;4135639;28;20035;-68
2024/01/09 08:17:14;;;;;;;10.07;6.95;;;0.10;99.90;;;-0.93;81.25;102075.69;4134231;28;20023;-68
2024/01/09 08:19:15;;;;;;;9.15;7.32;;;0.10;99.90;;;-0.91;81.56;102079.06;4150575;28;20026;-68
2024/01/09 08:21:16;;;;;;;10.43;7.35;;;0.10;99.90;;;-0.91;81.51;102076.50;4135233;28;20026;-68
2024/01/09 08:23:17;;;;;;;10.38;7.35;;;0.10;99.90;;;-0.92;81.42;102077.38;4135469;28;20034;-68